Portada
METAR-TAF:

METAR-TAF

Aeropuertos :

Monte Scuro, Italia

latitud: 39-20N, longitud: 016-24E, altitud: 1710 m

Observación

El informe se hizo hace 1 hora y 24 minutos, a las 16:55 UTC
Viento 6 kt del oeste-suroeste, variando entre sur-suroeste y oeste-noroeste
Temperatura 10°C
Humedad 100%
Presión 1012 hPa
Visibilidad menor de 50 m
niebla

METAR: LIBQ 061655Z 25006KT 210V300 0000 FG VV/// 10/10 Q1012 RMK MON INVIS VAL INVIS VIS MIN 0000

Hora: 20:19 (18:19 UTC)


TAF: falta

Observaciones y pronósticos meteorológicos de más de 4000 aeropuertos (mensajes METAR y TAF).

Los puntos amarillos y rojos representan las estaciones disponibles.

Ponga el ratón en el punto deseado para ver el nombre de la estación.

Haga clic para ver las observaciones y los pronósticos meteorológicos.

Para cambiar el mapa : haga clic en los botones verdes con una cruz de color negro para hacer un zoom, en el botón verde con un guión para alejar o en las flechas verdes para mapas adyacentes.


METAR-TAF: